sensor_id;sensor_type;location;lat;lon;timestamp;P1;durP1;ratioP1;P2;durP2;ratioP2
4885;SDS011;2457;51.788;6.136;2022-08-01T00:01:36;12.83;;;6.10;;
4885;SDS011;2457;51.788;6.136;2022-08-01T00:04:03;12.53;;;5.70;;
4885;SDS011;2457;51.788;6.136;2022-08-01T00:06:31;13.83;;;6.40;;
4885;SDS011;2457;51.788;6.136;2022-08-01T00:08:58;11.17;;;6.13;;
4885;SDS011;2457;51.788;6.136;2022-08-01T00:11:26;12.30;;;6.80;;
4885;SDS011;2457;51.788;6.136;2022-08-01T00:13:53;13.70;;;6.67;;
4885;SDS011;2457;51.788;6.136;2022-08-01T00:16:20;14.57;;;6.57;;
4885;SDS011;2457;51.788;6.136;2022-08-01T00:18:49;10.70;;;6.03;;
4885;SDS011;2457;51.788;6.136;2022-08-01T00:21:16;18.03;;;7.10;;
4885;SDS011;2457;51.788;6.136;2022-08-01T00:23:44;12.53;;;6.17;;
4885;SDS011;2457;51.788;6.136;2022-08-01T00:26:14;15.07;;;5.60;;
4885;SDS011;2457;51.788;6.136;2022-08-01T00:28:41;9.47;;;5.00;;
4885;SDS011;2457;51.788;6.136;2022-08-01T00:31:09;9.80;;;5.00;;
4885;SDS011;2457;51.788;6.136;2022-08-01T00:33:36;10.37;;;5.67;;
4885;SDS011;2457;51.788;6.136;2022-08-01T00:36:03;12.33;;;5.03;;
4885;SDS011;2457;51.788;6.136;2022-08-01T00:38:31;11.00;;;4.50;;
4885;SDS011;2457;51.788;6.136;2022-08-01T00:40:58;8.73;;;4.17;;
4885;SDS011;2457;51.788;6.136;2022-08-01T00:43:25;8.83;;;5.27;;
4885;SDS011;2457;51.788;6.136;2022-08-01T00:45:53;9.73;;;4.30;;
4885;SDS011;2457;51.788;6.136;2022-08-01T00:48:20;9.40;;;4.80;;
4885;SDS011;2457;51.788;6.136;2022-08-01T00:50:47;8.63;;;3.87;;
4885;SDS011;2457;51.788;6.136;2022-08-01T00:53:14;9.90;;;4.77;;
4885;SDS011;2457;51.788;6.136;2022-08-01T00:55:42;9.90;;;4.50;;
4885;SDS011;2457;51.788;6.136;2022-08-01T00:58:09;8.57;;;4.40;;
4885;SDS011;2457;51.788;6.136;2022-08-01T01:00:37;7.80;;;4.20;;
4885;SDS011;2457;51.788;6.136;2022-08-01T01:03:04;8.10;;;4.27;;
4885;SDS011;2457;51.788;6.136;2022-08-01T01:05:32;9.57;;;4.90;;
4885;SDS011;2457;51.788;6.136;2022-08-01T01:08:02;8.13;;;4.20;;
4885;SDS011;2457;51.788;6.136;2022-08-01T01:10:33;12.53;;;4.90;;
4885;SDS011;2457;51.788;6.136;2022-08-01T01:13:06;9.13;;;4.23;;
4885;SDS011;2457;51.788;6.136;2022-08-01T01:15:58;11.00;;;4.23;;
4885;SDS011;2457;51.788;6.136;2022-08-01T01:21:46;8.20;;;4.03;;
4885;SDS011;2457;51.788;6.136;2022-08-01T01:26:17;9.50;;;5.03;;
4885;SDS011;2457;51.788;6.136;2022-08-01T01:29:03;9.23;;;4.50;;
4885;SDS011;2457;51.788;6.136;2022-08-01T01:31:31;10.40;;;5.20;;
4885;SDS011;2457;51.788;6.136;2022-08-01T01:33:59;11.03;;;4.70;;
4885;SDS011;2457;51.788;6.136;2022-08-01T01:36:27;9.37;;;4.43;;
4885;SDS011;2457;51.788;6.136;2022-08-01T01:38:55;10.00;;;4.90;;
4885;SDS011;2457;51.788;6.136;2022-08-01T01:41:23;10.90;;;4.50;;
4885;SDS011;2457;51.788;6.136;2022-08-01T01:43:51;8.80;;;4.47;;
4885;SDS011;2457;51.788;6.136;2022-08-01T01:46:20;9.10;;;4.70;;
4885;SDS011;2457;51.788;6.136;2022-08-01T01:48:48;14.10;;;5.50;;
4885;SDS011;2457;51.788;6.136;2022-08-01T01:51:16;11.07;;;5.40;;
4885;SDS011;2457;51.788;6.136;2022-08-01T01:53:44;11.97;;;5.33;;
4885;SDS011;2457;51.788;6.136;2022-08-01T01:56:12;9.00;;;4.33;;
4885;SDS011;2457;51.788;6.136;2022-08-01T01:58:41;9.90;;;4.63;;
4885;SDS011;2457;51.788;6.136;2022-08-01T02:01:09;8.57;;;4.70;;
4885;SDS011;2457;51.788;6.136;2022-08-01T02:03:38;9.97;;;4.67;;
4885;SDS011;2457;51.788;6.136;2022-08-01T02:06:07;9.87;;;5.17;;
4885;SDS011;2457;51.788;6.136;2022-08-01T02:08:34;11.10;;;5.07;;
4885;SDS011;2457;51.788;6.136;2022-08-01T02:11:03;9.73;;;4.50;;
4885;SDS011;2457;51.788;6.136;2022-08-01T02:13:48;10.37;;;4.50;;
4885;SDS011;2457;51.788;6.136;2022-08-01T02:16:15;15.97;;;5.37;;
4885;SDS011;2457;51.788;6.136;2022-08-01T02:18:44;10.10;;;4.40;;
4885;SDS011;2457;51.788;6.136;2022-08-01T02:21:12;10.10;;;4.87;;
4885;SDS011;2457;51.788;6.136;2022-08-01T02:23:40;7.53;;;3.77;;
4885;SDS011;2457;51.788;6.136;2022-08-01T02:26:10;9.77;;;4.50;;
4885;SDS011;2457;51.788;6.136;2022-08-01T02:28:47;7.57;;;4.00;;
4885;SDS011;2457;51.788;6.136;2022-08-01T02:31:11;8.57;;;3.37;;
4885;SDS011;2457;51.788;6.136;2022-08-01T02:33:44;8.97;;;4.70;;
4885;SDS011;2457;51.788;6.136;2022-08-01T02:36:12;8.60;;;4.20;;
4885;SDS011;2457;51.788;6.136;2022-08-01T02:38:43;8.67;;;4.60;;
4885;SDS011;2457;51.788;6.136;2022-08-01T02:41:12;8.50;;;4.30;;
4885;SDS011;2457;51.788;6.136;2022-08-01T02:43:42;10.07;;;4.80;;
4885;SDS011;2457;51.788;6.136;2022-08-01T02:46:11;11.83;;;4.47;;
4885;SDS011;2457;51.788;6.136;2022-08-01T02:48:37;8.60;;;4.83;;
4885;SDS011;2457;51.788;6.136;2022-08-01T02:51:06;11.33;;;4.90;;
4885;SDS011;2457;51.788;6.136;2022-08-01T02:53:34;8.30;;;3.90;;
4885;SDS011;2457;51.788;6.136;2022-08-01T02:56:05;11.60;;;4.50;;
4885;SDS011;2457;51.788;6.136;2022-08-01T02:58:33;8.00;;;4.10;;
4885;SDS011;2457;51.788;6.136;2022-08-01T03:01:02;11.43;;;4.70;;
4885;SDS011;2457;51.788;6.136;2022-08-01T03:03:29;7.63;;;4.00;;
4885;SDS011;2457;51.788;6.136;2022-08-01T03:05:57;11.90;;;4.53;;
4885;SDS011;2457;51.788;6.136;2022-08-01T03:08:25;10.63;;;4.87;;
4885;SDS011;2457;51.788;6.136;2022-08-01T03:10:52;9.40;;;4.40;;
4885;SDS011;2457;51.788;6.136;2022-08-01T03:13:21;10.53;;;4.60;;
4885;SDS011;2457;51.788;6.136;2022-08-01T03:15:48;9.80;;;4.47;;
4885;SDS011;2457;51.788;6.136;2022-08-01T03:18:17;8.53;;;3.80;;
4885;SDS011;2457;51.788;6.136;2022-08-01T03:20:44;7.67;;;3.63;;
4885;SDS011;2457;51.788;6.136;2022-08-01T03:23:12;8.57;;;4.27;;
4885;SDS011;2457;51.788;6.136;2022-08-01T03:25:41;8.67;;;4.40;;
4885;SDS011;2457;51.788;6.136;2022-08-01T03:28:11;8.47;;;4.40;;
4885;SDS011;2457;51.788;6.136;2022-08-01T03:30:39;7.87;;;4.23;;
4885;SDS011;2457;51.788;6.136;2022-08-01T03:33:07;10.17;;;4.40;;
4885;SDS011;2457;51.788;6.136;2022-08-01T03:35:47;9.00;;;5.00;;
4885;SDS011;2457;51.788;6.136;2022-08-01T03:38:10;8.77;;;4.43;;
4885;SDS011;2457;51.788;6.136;2022-08-01T03:40:39;8.60;;;4.43;;
4885;SDS011;2457;51.788;6.136;2022-08-01T03:43:11;9.40;;;4.80;;
4885;SDS011;2457;51.788;6.136;2022-08-01T03:45:37;8.87;;;4.50;;
4885;SDS011;2457;51.788;6.136;2022-08-01T03:48:07;10.97;;;4.60;;
4885;SDS011;2457;51.788;6.136;2022-08-01T03:50:34;8.50;;;4.40;;
4885;SDS011;2457;51.788;6.136;2022-08-01T03:53:03;10.10;;;4.37;;
4885;SDS011;2457;51.788;6.136;2022-08-01T03:55:31;8.33;;;4.53;;
4885;SDS011;2457;51.788;6.136;2022-08-01T03:57:58;7.93;;;4.20;;
4885;SDS011;2457;51.788;6.136;2022-08-01T04:00:27;17.13;;;4.73;;
4885;SDS011;2457;51.788;6.136;2022-08-01T04:02:55;9.60;;;4.80;;
4885;SDS011;2457;51.788;6.136;2022-08-01T04:05:22;10.20;;;3.93;;
4885;SDS011;2457;51.788;6.136;2022-08-01T04:07:50;11.40;;;4.97;;
4885;SDS011;2457;51.788;6.136;2022-08-01T04:10:24;11.30;;;4.67;;
4885;SDS011;2457;51.788;6.136;2022-08-01T04:12:52;11.07;;;4.37;;
4885;SDS011;2457;51.788;6.136;2022-08-01T04:15:19;11.47;;;4.00;;
4885;SDS011;2457;51.788;6.136;2022-08-01T04:17:50;8.73;;;4.30;;
4885;SDS011;2457;51.788;6.136;2022-08-01T04:20:17;11.03;;;4.50;;
4885;SDS011;2457;51.788;6.136;2022-08-01T04:22:44;8.03;;;4.27;;
4885;SDS011;2457;51.788;6.136;2022-08-01T04:25:29;9.47;;;4.60;;
4885;SDS011;2457;51.788;6.136;2022-08-01T04:27:53;9.70;;;5.10;;
4885;SDS011;2457;51.788;6.136;2022-08-01T04:30:26;10.77;;;4.13;;
4885;SDS011;2457;51.788;6.136;2022-08-01T04:32:54;10.73;;;5.03;;
4885;SDS011;2457;51.788;6.136;2022-08-01T04:35:22;11.03;;;5.60;;
4885;SDS011;2457;51.788;6.136;2022-08-01T04:37:51;8.03;;;4.20;;
4885;SDS011;2457;51.788;6.136;2022-08-01T04:40:19;8.87;;;4.03;;
4885;SDS011;2457;51.788;6.136;2022-08-01T04:42:49;7.50;;;3.73;;
4885;SDS011;2457;51.788;6.136;2022-08-01T04:45:17;6.67;;;3.50;;
4885;SDS011;2457;51.788;6.136;2022-08-01T04:47:44;11.30;;;5.07;;
4885;SDS011;2457;51.788;6.136;2022-08-01T04:50:14;11.03;;;4.70;;
4885;SDS011;2457;51.788;6.136;2022-08-01T04:52:41;8.07;;;3.83;;
4885;SDS011;2457;51.788;6.136;2022-08-01T04:55:08;10.23;;;4.40;;
4885;SDS011;2457;51.788;6.136;2022-08-01T04:57:37;9.63;;;4.60;;
4885;SDS011;2457;51.788;6.136;2022-08-01T05:00:05;10.10;;;4.23;;
4885;SDS011;2457;51.788;6.136;2022-08-01T05:02:32;7.80;;;4.37;;
4885;SDS011;2457;51.788;6.136;2022-08-01T05:05:00;8.17;;;3.90;;
4885;SDS011;2457;51.788;6.136;2022-08-01T05:07:27;8.60;;;4.20;;
4885;SDS011;2457;51.788;6.136;2022-08-01T05:09:54;7.93;;;3.97;;
4885;SDS011;2457;51.788;6.136;2022-08-01T05:12:22;9.67;;;4.07;;
4885;SDS011;2457;51.788;6.136;2022-08-01T05:14:49;7.60;;;3.93;;
4885;SDS011;2457;51.788;6.136;2022-08-01T05:17:17;9.83;;;4.57;;
4885;SDS011;2457;51.788;6.136;2022-08-01T05:19:44;6.63;;;3.50;;
4885;SDS011;2457;51.788;6.136;2022-08-01T05:22:12;8.10;;;3.70;;
4885;SDS011;2457;51.788;6.136;2022-08-01T05:24:39;7.33;;;3.77;;
4885;SDS011;2457;51.788;6.136;2022-08-01T05:27:06;11.00;;;4.83;;
4885;SDS011;2457;51.788;6.136;2022-08-01T05:29:34;7.70;;;3.83;;
4885;SDS011;2457;51.788;6.136;2022-08-01T05:32:02;9.23;;;4.63;;
4885;SDS011;2457;51.788;6.136;2022-08-01T05:34:30;8.23;;;3.90;;
4885;SDS011;2457;51.788;6.136;2022-08-01T05:36:57;8.20;;;4.00;;
4885;SDS011;2457;51.788;6.136;2022-08-01T05:39:24;8.30;;;3.80;;
4885;SDS011;2457;51.788;6.136;2022-08-01T05:41:51;7.00;;;3.50;;
4885;SDS011;2457;51.788;6.136;2022-08-01T05:44:18;7.97;;;3.57;;
4885;SDS011;2457;51.788;6.136;2022-08-01T05:46:46;7.53;;;3.33;;
4885;SDS011;2457;51.788;6.136;2022-08-01T05:49:13;8.70;;;3.13;;
4885;SDS011;2457;51.788;6.136;2022-08-01T05:51:40;8.40;;;3.90;;
4885;SDS011;2457;51.788;6.136;2022-08-01T05:54:08;8.80;;;3.90;;
4885;SDS011;2457;51.788;6.136;2022-08-01T05:56:35;8.80;;;4.37;;
4885;SDS011;2457;51.788;6.136;2022-08-01T05:59:02;7.30;;;3.13;;
4885;SDS011;2457;51.788;6.136;2022-08-01T06:01:30;10.47;;;4.53;;
4885;SDS011;2457;51.788;6.136;2022-08-01T06:03:57;6.57;;;3.43;;
4885;SDS011;2457;51.788;6.136;2022-08-01T06:06:25;8.73;;;4.37;;
4885;SDS011;2457;51.788;6.136;2022-08-01T06:08:52;10.10;;;4.70;;
4885;SDS011;2457;51.788;6.136;2022-08-01T06:11:19;8.33;;;4.13;;
4885;SDS011;2457;51.788;6.136;2022-08-01T06:13:47;7.57;;;4.10;;
4885;SDS011;2457;51.788;6.136;2022-08-01T06:16:14;7.97;;;3.87;;
4885;SDS011;2457;51.788;6.136;2022-08-01T06:18:42;7.30;;;3.53;;
4885;SDS011;2457;51.788;6.136;2022-08-01T06:21:09;9.03;;;3.73;;
4885;SDS011;2457;51.788;6.136;2022-08-01T06:23:36;10.03;;;3.37;;
4885;SDS011;2457;51.788;6.136;2022-08-01T06:26:04;7.70;;;3.87;;
4885;SDS011;2457;51.788;6.136;2022-08-01T06:28:31;10.40;;;3.37;;
4885;SDS011;2457;51.788;6.136;2022-08-01T06:30:58;10.30;;;3.63;;
4885;SDS011;2457;51.788;6.136;2022-08-01T06:33:26;7.10;;;3.50;;
4885;SDS011;2457;51.788;6.136;2022-08-01T06:35:53;7.23;;;3.30;;
4885;SDS011;2457;51.788;6.136;2022-08-01T06:38:21;5.43;;;2.70;;
4885;SDS011;2457;51.788;6.136;2022-08-01T06:40:48;5.27;;;2.50;;
4885;SDS011;2457;51.788;6.136;2022-08-01T06:43:15;5.27;;;2.43;;
4885;SDS011;2457;51.788;6.136;2022-08-01T06:45:44;4.50;;;1.70;;
4885;SDS011;2457;51.788;6.136;2022-08-01T06:48:12;5.30;;;1.80;;
4885;SDS011;2457;51.788;6.136;2022-08-01T06:50:39;4.17;;;1.50;;
4885;SDS011;2457;51.788;6.136;2022-08-01T06:53:06;4.43;;;1.50;;
4885;SDS011;2457;51.788;6.136;2022-08-01T06:55:34;6.83;;;1.70;;
4885;SDS011;2457;51.788;6.136;2022-08-01T06:58:01;4.10;;;1.60;;
4885;SDS011;2457;51.788;6.136;2022-08-01T07:00:28;3.67;;;1.43;;
4885;SDS011;2457;51.788;6.136;2022-08-01T07:02:56;4.87;;;1.90;;
4885;SDS011;2457;51.788;6.136;2022-08-01T07:05:25;5.40;;;1.60;;
4885;SDS011;2457;51.788;6.136;2022-08-01T07:07:53;4.63;;;2.20;;
4885;SDS011;2457;51.788;6.136;2022-08-01T07:10:20;4.00;;;1.50;;
4885;SDS011;2457;51.788;6.136;2022-08-01T07:12:47;4.17;;;1.67;;
4885;SDS011;2457;51.788;6.136;2022-08-01T07:15:15;4.17;;;1.70;;
4885;SDS011;2457;51.788;6.136;2022-08-01T07:17:42;3.33;;;1.20;;
4885;SDS011;2457;51.788;6.136;2022-08-01T07:20:10;4.00;;;1.30;;
4885;SDS011;2457;51.788;6.136;2022-08-01T07:22:38;4.00;;;1.37;;
4885;SDS011;2457;51.788;6.136;2022-08-01T07:25:05;3.80;;;1.50;;
4885;SDS011;2457;51.788;6.136;2022-08-01T07:27:33;4.10;;;1.60;;
4885;SDS011;2457;51.788;6.136;2022-08-01T07:30:00;3.63;;;1.30;;
4885;SDS011;2457;51.788;6.136;2022-08-01T07:32:27;5.73;;;1.70;;
4885;SDS011;2457;51.788;6.136;2022-08-01T07:34:55;5.30;;;1.40;;
4885;SDS011;2457;51.788;6.136;2022-08-01T07:37:23;3.43;;;1.13;;
4885;SDS011;2457;51.788;6.136;2022-08-01T07:39:50;3.50;;;1.20;;
4885;SDS011;2457;51.788;6.136;2022-08-01T07:42:17;3.73;;;1.30;;
4885;SDS011;2457;51.788;6.136;2022-08-01T07:44:44;3.33;;;1.07;;
4885;SDS011;2457;51.788;6.136;2022-08-01T07:47:12;3.60;;;1.13;;
4885;SDS011;2457;51.788;6.136;2022-08-01T07:49:39;3.50;;;1.27;;
4885;SDS011;2457;51.788;6.136;2022-08-01T07:52:07;5.00;;;1.00;;
4885;SDS011;2457;51.788;6.136;2022-08-01T07:54:34;5.67;;;1.30;;
4885;SDS011;2457;51.788;6.136;2022-08-01T07:57:02;3.97;;;1.47;;
4885;SDS011;2457;51.788;6.136;2022-08-01T07:59:29;5.57;;;1.47;;
4885;SDS011;2457;51.788;6.136;2022-08-01T08:01:57;3.40;;;1.30;;
4885;SDS011;2457;51.788;6.136;2022-08-01T08:04:25;3.47;;;1.33;;
4885;SDS011;2457;51.788;6.136;2022-08-01T08:06:52;3.40;;;1.23;;
4885;SDS011;2457;51.788;6.136;2022-08-01T08:09:19;3.43;;;1.27;;
4885;SDS011;2457;51.788;6.136;2022-08-01T08:11:47;3.83;;;1.13;;
4885;SDS011;2457;51.788;6.136;2022-08-01T08:14:15;3.70;;;1.10;;
4885;SDS011;2457;51.788;6.136;2022-08-01T08:16:42;3.50;;;1.20;;
4885;SDS011;2457;51.788;6.136;2022-08-01T08:19:10;3.33;;;1.00;;
4885;SDS011;2457;51.788;6.136;2022-08-01T08:21:38;3.30;;;0.93;;
4885;SDS011;2457;51.788;6.136;2022-08-01T08:24:06;3.83;;;0.97;;
4885;SDS011;2457;51.788;6.136;2022-08-01T08:26:49;3.00;;;0.90;;
4885;SDS011;2457;51.788;6.136;2022-08-01T08:29:17;3.10;;;1.00;;
4885;SDS011;2457;51.788;6.136;2022-08-01T08:31:44;3.10;;;0.80;;
4885;SDS011;2457;51.788;6.136;2022-08-01T08:34:11;3.00;;;0.90;;
4885;SDS011;2457;51.788;6.136;2022-08-01T08:36:39;3.47;;;1.10;;
4885;SDS011;2457;51.788;6.136;2022-08-01T08:39:07;3.90;;;1.43;;
4885;SDS011;2457;51.788;6.136;2022-08-01T08:41:34;5.70;;;1.10;;
4885;SDS011;2457;51.788;6.136;2022-08-01T08:44:07;3.30;;;1.00;;
4885;SDS011;2457;51.788;6.136;2022-08-01T08:46:31;3.70;;;1.10;;
4885;SDS011;2457;51.788;6.136;2022-08-01T08:49:00;3.33;;;1.30;;
4885;SDS011;2457;51.788;6.136;2022-08-01T08:51:27;3.57;;;1.20;;
4885;SDS011;2457;51.788;6.136;2022-08-01T08:53:57;4.73;;;1.17;;
4885;SDS011;2457;51.788;6.136;2022-08-01T08:56:25;4.23;;;1.30;;
4885;SDS011;2457;51.788;6.136;2022-08-01T08:58:52;3.50;;;1.20;;
4885;SDS011;2457;51.788;6.136;2022-08-01T09:01:19;3.50;;;1.23;;
4885;SDS011;2457;51.788;6.136;2022-08-01T09:03:47;4.00;;;1.10;;
4885;SDS011;2457;51.788;6.136;2022-08-01T09:06:14;4.40;;;1.30;;
4885;SDS011;2457;51.788;6.136;2022-08-01T09:08:41;3.40;;;1.13;;
4885;SDS011;2457;51.788;6.136;2022-08-01T09:11:09;3.47;;;1.23;;
4885;SDS011;2457;51.788;6.136;2022-08-01T09:13:36;6.00;;;1.17;;
4885;SDS011;2457;51.788;6.136;2022-08-01T09:16:04;3.57;;;1.17;;
4885;SDS011;2457;51.788;6.136;2022-08-01T09:18:36;4.47;;;1.47;;
4885;SDS011;2457;51.788;6.136;2022-08-01T09:21:07;4.90;;;1.60;;
4885;SDS011;2457;51.788;6.136;2022-08-01T09:23:36;4.53;;;1.50;;
4885;SDS011;2457;51.788;6.136;2022-08-01T09:26:08;4.43;;;1.20;;
4885;SDS011;2457;51.788;6.136;2022-08-01T09:28:36;4.13;;;1.50;;
4885;SDS011;2457;51.788;6.136;2022-08-01T09:33:52;3.50;;;1.30;;
4885;SDS011;2457;51.788;6.136;2022-08-01T09:36:20;4.00;;;1.40;;
4885;SDS011;2457;51.788;6.136;2022-08-01T09:38:48;4.50;;;1.37;;
4885;SDS011;2457;51.788;6.136;2022-08-01T09:41:15;3.20;;;1.00;;
4885;SDS011;2457;51.788;6.136;2022-08-01T09:43:49;5.13;;;1.17;;
4885;SDS011;2457;51.788;6.136;2022-08-01T09:46:16;4.43;;;1.10;;
4885;SDS011;2457;51.788;6.136;2022-08-01T09:49:00;4.17;;;1.23;;
4885;SDS011;2457;51.788;6.136;2022-08-01T09:51:38;5.00;;;1.33;;
4885;SDS011;2457;51.788;6.136;2022-08-01T09:54:06;3.27;;;1.20;;
4885;SDS011;2457;51.788;6.136;2022-08-01T09:56:41;3.77;;;1.30;;
4885;SDS011;2457;51.788;6.136;2022-08-01T09:59:05;3.77;;;1.27;;
4885;SDS011;2457;51.788;6.136;2022-08-01T10:01:43;4.20;;;1.40;;
4885;SDS011;2457;51.788;6.136;2022-08-01T10:04:20;4.70;;;1.17;;
4885;SDS011;2457;51.788;6.136;2022-08-01T10:06:49;4.10;;;1.33;;
4885;SDS011;2457;51.788;6.136;2022-08-01T10:09:36;5.40;;;1.40;;
4885;SDS011;2457;51.788;6.136;2022-08-01T10:11:50;5.20;;;1.50;;
4885;SDS011;2457;51.788;6.136;2022-08-01T10:14:17;4.50;;;2.13;;
4885;SDS011;2457;51.788;6.136;2022-08-01T10:16:46;5.17;;;1.90;;
4885;SDS011;2457;51.788;6.136;2022-08-01T10:19:14;5.50;;;2.00;;
4885;SDS011;2457;51.788;6.136;2022-08-01T10:21:42;3.90;;;1.70;;
4885;SDS011;2457;51.788;6.136;2022-08-01T10:24:14;5.40;;;2.30;;
4885;SDS011;2457;51.788;6.136;2022-08-01T10:26:41;6.50;;;2.10;;
4885;SDS011;2457;51.788;6.136;2022-08-01T10:29:10;4.80;;;2.10;;
4885;SDS011;2457;51.788;6.136;2022-08-01T10:31:38;6.50;;;2.07;;
4885;SDS011;2457;51.788;6.136;2022-08-01T10:34:05;4.90;;;2.10;;
4885;SDS011;2457;51.788;6.136;2022-08-01T10:36:33;4.80;;;1.60;;
4885;SDS011;2457;51.788;6.136;2022-08-01T10:39:02;4.57;;;1.47;;
4885;SDS011;2457;51.788;6.136;2022-08-01T10:41:29;6.93;;;2.00;;
4885;SDS011;2457;51.788;6.136;2022-08-01T10:43:56;4.37;;;1.60;;
4885;SDS011;2457;51.788;6.136;2022-08-01T10:46:24;5.80;;;1.27;;
4885;SDS011;2457;51.788;6.136;2022-08-01T10:49:00;4.07;;;1.40;;
4885;SDS011;2457;51.788;6.136;2022-08-01T10:51:23;4.13;;;1.40;;
4885;SDS011;2457;51.788;6.136;2022-08-01T10:53:51;4.93;;;1.90;;
4885;SDS011;2457;51.788;6.136;2022-08-01T10:56:19;4.00;;;1.60;;
4885;SDS011;2457;51.788;6.136;2022-08-01T10:58:48;4.57;;;1.47;;
4885;SDS011;2457;51.788;6.136;2022-08-01T11:09:04;6.80;;;2.10;;
4885;SDS011;2457;51.788;6.136;2022-08-01T11:11:56;4.70;;;1.90;;
4885;SDS011;2457;51.788;6.136;2022-08-01T11:14:01;6.43;;;2.30;;
4885;SDS011;2457;51.788;6.136;2022-08-01T11:16:39;5.93;;;2.10;;
4885;SDS011;2457;51.788;6.136;2022-08-01T11:19:07;5.20;;;2.30;;
4885;SDS011;2457;51.788;6.136;2022-08-01T11:27:27;4.23;;;2.10;;
4885;SDS011;2457;51.788;6.136;2022-08-01T11:29:38;4.97;;;2.00;;
4885;SDS011;2457;51.788;6.136;2022-08-01T11:32:25;5.47;;;2.40;;
4885;SDS011;2457;51.788;6.136;2022-08-01T11:34:58;5.50;;;2.50;;
4885;SDS011;2457;51.788;6.136;2022-08-01T11:37:28;7.73;;;2.90;;
4885;SDS011;2457;51.788;6.136;2022-08-01T11:40:15;7.10;;;2.53;;
4885;SDS011;2457;51.788;6.136;2022-08-01T11:42:42;6.30;;;2.10;;
4885;SDS011;2457;51.788;6.136;2022-08-01T11:45:10;6.87;;;2.63;;
4885;SDS011;2457;51.788;6.136;2022-08-01T11:47:47;11.03;;;2.80;;
4885;SDS011;2457;51.788;6.136;2022-08-01T11:50:34;4.87;;;2.40;;
4885;SDS011;2457;51.788;6.136;2022-08-01T11:53:03;8.27;;;3.00;;
4885;SDS011;2457;51.788;6.136;2022-08-01T11:55:30;6.40;;;2.50;;
4885;SDS011;2457;51.788;6.136;2022-08-01T11:57:59;7.00;;;3.10;;
4885;SDS011;2457;51.788;6.136;2022-08-01T12:00:26;6.73;;;2.50;;
4885;SDS011;2457;51.788;6.136;2022-08-01T12:02:58;5.63;;;2.10;;
4885;SDS011;2457;51.788;6.136;2022-08-01T12:05:26;6.00;;;1.83;;
4885;SDS011;2457;51.788;6.136;2022-08-01T12:07:54;4.30;;;1.77;;
4885;SDS011;2457;51.788;6.136;2022-08-01T12:10:25;4.93;;;1.87;;
4885;SDS011;2457;51.788;6.136;2022-08-01T12:12:56;3.70;;;1.53;;
4885;SDS011;2457;51.788;6.136;2022-08-01T12:15:24;4.83;;;1.83;;
4885;SDS011;2457;51.788;6.136;2022-08-01T12:17:58;7.13;;;1.90;;
4885;SDS011;2457;51.788;6.136;2022-08-01T12:20:26;4.40;;;1.73;;
4885;SDS011;2457;51.788;6.136;2022-08-01T12:22:54;4.23;;;1.63;;
4885;SDS011;2457;51.788;6.136;2022-08-01T12:25:22;4.50;;;1.83;;
4885;SDS011;2457;51.788;6.136;2022-08-01T12:27:50;3.30;;;1.20;;
4885;SDS011;2457;51.788;6.136;2022-08-01T12:30:18;4.10;;;1.57;;
4885;SDS011;2457;51.788;6.136;2022-08-01T12:32:46;6.10;;;1.67;;
4885;SDS011;2457;51.788;6.136;2022-08-01T12:35:17;3.87;;;1.70;;
4885;SDS011;2457;51.788;6.136;2022-08-01T12:37:47;3.90;;;1.30;;
4885;SDS011;2457;51.788;6.136;2022-08-01T12:40:19;7.20;;;1.30;;
4885;SDS011;2457;51.788;6.136;2022-08-01T12:42:47;3.30;;;1.20;;
4885;SDS011;2457;51.788;6.136;2022-08-01T12:47:49;5.03;;;1.40;;
4885;SDS011;2457;51.788;6.136;2022-08-01T12:50:21;3.93;;;1.40;;
4885;SDS011;2457;51.788;6.136;2022-08-01T12:52:50;4.93;;;1.40;;
4885;SDS011;2457;51.788;6.136;2022-08-01T12:55:18;5.60;;;1.70;;
4885;SDS011;2457;51.788;6.136;2022-08-01T12:57:48;4.60;;;1.90;;
4885;SDS011;2457;51.788;6.136;2022-08-01T13:00:18;5.03;;;1.83;;
4885;SDS011;2457;51.788;6.136;2022-08-01T13:02:46;8.40;;;2.20;;
4885;SDS011;2457;51.788;6.136;2022-08-01T13:05:15;8.97;;;2.10;;
4885;SDS011;2457;51.788;6.136;2022-08-01T13:07:47;6.50;;;2.27;;
4885;SDS011;2457;51.788;6.136;2022-08-01T13:10:14;7.40;;;1.70;;
4885;SDS011;2457;51.788;6.136;2022-08-01T13:12:50;10.40;;;2.10;;
4885;SDS011;2457;51.788;6.136;2022-08-01T13:15:17;5.13;;;2.00;;
4885;SDS011;2457;51.788;6.136;2022-08-01T13:17:45;6.70;;;2.40;;
4885;SDS011;2457;51.788;6.136;2022-08-01T13:20:25;6.50;;;1.87;;
4885;SDS011;2457;51.788;6.136;2022-08-01T13:22:53;5.10;;;2.17;;
4885;SDS011;2457;51.788;6.136;2022-08-01T13:25:21;6.43;;;2.10;;
4885;SDS011;2457;51.788;6.136;2022-08-01T13:27:48;6.13;;;1.70;;
4885;SDS011;2457;51.788;6.136;2022-08-01T13:30:16;6.70;;;1.80;;
4885;SDS011;2457;51.788;6.136;2022-08-01T13:32:56;3.67;;;1.40;;
4885;SDS011;2457;51.788;6.136;2022-08-01T13:35:13;5.00;;;1.80;;
4885;SDS011;2457;51.788;6.136;2022-08-01T13:37:40;7.83;;;1.77;;
4885;SDS011;2457;51.788;6.136;2022-08-01T13:40:09;4.33;;;1.50;;
4885;SDS011;2457;51.788;6.136;2022-08-01T13:42:36;4.60;;;1.97;;
4885;SDS011;2457;51.788;6.136;2022-08-01T13:45:04;4.13;;;1.30;;
4885;SDS011;2457;51.788;6.136;2022-08-01T13:47:34;10.33;;;1.47;;
4885;SDS011;2457;51.788;6.136;2022-08-01T13:50:01;4.20;;;1.20;;
4885;SDS011;2457;51.788;6.136;2022-08-01T13:52:29;5.30;;;1.30;;
4885;SDS011;2457;51.788;6.136;2022-08-01T13:54:56;3.93;;;1.20;;
4885;SDS011;2457;51.788;6.136;2022-08-01T13:57:24;12.03;;;1.60;;
4885;SDS011;2457;51.788;6.136;2022-08-01T13:59:51;6.50;;;1.47;;
4885;SDS011;2457;51.788;6.136;2022-08-01T14:02:19;3.87;;;1.60;;
4885;SDS011;2457;51.788;6.136;2022-08-01T14:04:46;4.23;;;1.50;;
4885;SDS011;2457;51.788;6.136;2022-08-01T14:07:14;5.07;;;1.53;;
4885;SDS011;2457;51.788;6.136;2022-08-01T14:09:41;6.87;;;1.60;;
4885;SDS011;2457;51.788;6.136;2022-08-01T14:12:08;4.00;;;1.50;;
4885;SDS011;2457;51.788;6.136;2022-08-01T14:14:36;5.67;;;1.60;;
4885;SDS011;2457;51.788;6.136;2022-08-01T14:17:04;10.13;;;1.40;;
4885;SDS011;2457;51.788;6.136;2022-08-01T14:19:31;5.90;;;1.47;;
4885;SDS011;2457;51.788;6.136;2022-08-01T14:21:59;6.27;;;1.50;;
4885;SDS011;2457;51.788;6.136;2022-08-01T14:24:26;3.50;;;1.20;;
4885;SDS011;2457;51.788;6.136;2022-08-01T14:26:53;4.90;;;1.57;;
4885;SDS011;2457;51.788;6.136;2022-08-01T14:29:20;5.47;;;1.60;;
4885;SDS011;2457;51.788;6.136;2022-08-01T14:31:48;6.03;;;1.67;;
4885;SDS011;2457;51.788;6.136;2022-08-01T14:34:15;6.80;;;1.30;;
4885;SDS011;2457;51.788;6.136;2022-08-01T14:36:42;3.80;;;1.40;;
4885;SDS011;2457;51.788;6.136;2022-08-01T14:39:09;6.10;;;1.70;;
4885;SDS011;2457;51.788;6.136;2022-08-01T14:41:37;7.67;;;2.60;;
4885;SDS011;2457;51.788;6.136;2022-08-01T14:44:04;4.43;;;1.23;;
4885;SDS011;2457;51.788;6.136;2022-08-01T14:46:32;6.33;;;1.23;;
4885;SDS011;2457;51.788;6.136;2022-08-01T14:48:59;4.90;;;1.53;;
4885;SDS011;2457;51.788;6.136;2022-08-01T14:51:26;3.83;;;1.20;;
4885;SDS011;2457;51.788;6.136;2022-08-01T14:53:53;3.63;;;1.40;;
4885;SDS011;2457;51.788;6.136;2022-08-01T14:56:21;5.60;;;1.60;;
4885;SDS011;2457;51.788;6.136;2022-08-01T14:58:49;5.40;;;1.60;;
4885;SDS011;2457;51.788;6.136;2022-08-01T15:01:16;9.07;;;1.60;;
4885;SDS011;2457;51.788;6.136;2022-08-01T15:03:44;3.40;;;1.20;;
4885;SDS011;2457;51.788;6.136;2022-08-01T15:06:12;4.27;;;1.47;;
4885;SDS011;2457;51.788;6.136;2022-08-01T15:08:39;4.10;;;1.20;;
4885;SDS011;2457;51.788;6.136;2022-08-01T15:11:07;6.80;;;1.50;;
4885;SDS011;2457;51.788;6.136;2022-08-01T15:13:34;5.20;;;1.33;;
4885;SDS011;2457;51.788;6.136;2022-08-01T15:16:02;4.27;;;1.50;;
4885;SDS011;2457;51.788;6.136;2022-08-01T15:18:29;6.17;;;1.53;;
4885;SDS011;2457;51.788;6.136;2022-08-01T15:20:57;7.60;;;1.80;;
4885;SDS011;2457;51.788;6.136;2022-08-01T15:23:24;5.23;;;1.57;;
4885;SDS011;2457;51.788;6.136;2022-08-01T15:25:51;4.50;;;1.30;;
4885;SDS011;2457;51.788;6.136;2022-08-01T15:28:18;6.90;;;1.60;;
4885;SDS011;2457;51.788;6.136;2022-08-01T15:30:46;5.07;;;1.63;;
4885;SDS011;2457;51.788;6.136;2022-08-01T15:33:13;5.23;;;1.47;;
4885;SDS011;2457;51.788;6.136;2022-08-01T15:35:41;4.70;;;1.43;;
4885;SDS011;2457;51.788;6.136;2022-08-01T15:38:08;4.13;;;1.60;;
4885;SDS011;2457;51.788;6.136;2022-08-01T15:40:36;5.90;;;1.60;;
4885;SDS011;2457;51.788;6.136;2022-08-01T15:43:03;7.00;;;1.70;;
4885;SDS011;2457;51.788;6.136;2022-08-01T15:45:30;7.37;;;2.67;;